sensor_id;sensor_type;location;lat;lon;timestamp;P1;durP1;ratioP1;P2;durP2;ratioP2
43327;SDS011;28923;45.412;10.852;2023-02-15T00:01:05;11.32;;;9.35;;
43327;SDS011;28923;45.412;10.852;2023-02-15T00:03:31;12.43;;;8.88;;
43327;SDS011;28923;45.412;10.852;2023-02-15T00:05:57;11.48;;;9.07;;
43327;SDS011;28923;45.412;10.852;2023-02-15T00:08:22;10.60;;;8.38;;
43327;SDS011;28923;45.412;10.852;2023-02-15T00:10:47;10.35;;;8.75;;
43327;SDS011;28923;45.412;10.852;2023-02-15T00:13:13;10.70;;;8.30;;
43327;SDS011;28923;45.412;10.852;2023-02-15T00:15:38;11.30;;;8.80;;
43327;SDS011;28923;45.412;10.852;2023-02-15T00:18:03;11.10;;;8.73;;
43327;SDS011;28923;45.412;10.852;2023-02-15T00:20:29;9.50;;;8.15;;
43327;SDS011;28923;45.412;10.852;2023-02-15T00:22:54;10.40;;;8.50;;
43327;SDS011;28923;45.412;10.852;2023-02-15T00:25:19;9.60;;;8.35;;
43327;SDS011;28923;45.412;10.852;2023-02-15T00:27:45;11.45;;;8.57;;
43327;SDS011;28923;45.412;10.852;2023-02-15T00:30:10;11.20;;;9.20;;
43327;SDS011;28923;45.412;10.852;2023-02-15T00:32:36;14.52;;;8.90;;
43327;SDS011;28923;45.412;10.852;2023-02-15T00:35:01;10.18;;;8.73;;
43327;SDS011;28923;45.412;10.852;2023-02-15T00:37:26;9.50;;;8.02;;
43327;SDS011;28923;45.412;10.852;2023-02-15T00:39:52;10.23;;;8.32;;
43327;SDS011;28923;45.412;10.852;2023-02-15T00:42:17;10.70;;;8.43;;
43327;SDS011;28923;45.412;10.852;2023-02-15T00:44:43;10.13;;;8.63;;
43327;SDS011;28923;45.412;10.852;2023-02-15T00:47:08;9.73;;;8.60;;
43327;SDS011;28923;45.412;10.852;2023-02-15T00:49:33;9.75;;;8.10;;
43327;SDS011;28923;45.412;10.852;2023-02-15T00:51:59;9.80;;;8.23;;
43327;SDS011;28923;45.412;10.852;2023-02-15T00:54:24;13.48;;;9.50;;
43327;SDS011;28923;45.412;10.852;2023-02-15T00:56:49;10.13;;;8.15;;
43327;SDS011;28923;45.412;10.852;2023-02-15T00:59:15;11.70;;;9.00;;
43327;SDS011;28923;45.412;10.852;2023-02-15T01:01:40;10.68;;;8.75;;
43327;SDS011;28923;45.412;10.852;2023-02-15T01:04:05;10.20;;;8.70;;
43327;SDS011;28923;45.412;10.852;2023-02-15T01:06:31;10.50;;;8.57;;
43327;SDS011;28923;45.412;10.852;2023-02-15T01:08:56;9.80;;;8.18;;
43327;SDS011;28923;45.412;10.852;2023-02-15T01:11:22;10.18;;;8.50;;
43327;SDS011;28923;45.412;10.852;2023-02-15T01:13:49;10.60;;;8.27;;
43327;SDS011;28923;45.412;10.852;2023-02-15T01:16:15;11.02;;;9.10;;
43327;SDS011;28923;45.412;10.852;2023-02-15T01:18:41;11.55;;;9.27;;
43327;SDS011;28923;45.412;10.852;2023-02-15T01:21:14;11.65;;;9.05;;
43327;SDS011;28923;45.412;10.852;2023-02-15T01:23:42;11.02;;;9.07;;
43327;SDS011;28923;45.412;10.852;2023-02-15T01:26:08;11.05;;;9.40;;
43327;SDS011;28923;45.412;10.852;2023-02-15T01:28:33;12.00;;;9.55;;
43327;SDS011;28923;45.412;10.852;2023-02-15T01:31:04;10.50;;;8.50;;
43327;SDS011;28923;45.412;10.852;2023-02-15T01:33:29;11.88;;;9.05;;
43327;SDS011;28923;45.412;10.852;2023-02-15T01:35:58;10.80;;;9.00;;
43327;SDS011;28923;45.412;10.852;2023-02-15T01:38:23;10.27;;;8.20;;
43327;SDS011;28923;45.412;10.852;2023-02-15T01:40:52;10.30;;;9.15;;
43327;SDS011;28923;45.412;10.852;2023-02-15T01:43:18;9.18;;;8.10;;
43327;SDS011;28923;45.412;10.852;2023-02-15T01:45:43;10.48;;;8.40;;
43327;SDS011;28923;45.412;10.852;2023-02-15T01:50:43;14.57;;;9.38;;
43327;SDS011;28923;45.412;10.852;2023-02-15T01:55:45;12.43;;;9.30;;
43327;SDS011;28923;45.412;10.852;2023-02-15T01:58:13;13.07;;;9.38;;
43327;SDS011;28923;45.412;10.852;2023-02-15T02:00:39;11.65;;;9.23;;
43327;SDS011;28923;45.412;10.852;2023-02-15T02:03:05;12.68;;;9.10;;
43327;SDS011;28923;45.412;10.852;2023-02-15T02:05:32;10.20;;;8.68;;
43327;SDS011;28923;45.412;10.852;2023-02-15T02:07:58;11.63;;;9.35;;
43327;SDS011;28923;45.412;10.852;2023-02-15T02:10:24;11.00;;;8.70;;
43327;SDS011;28923;45.412;10.852;2023-02-15T02:12:51;13.35;;;9.27;;
43327;SDS011;28923;45.412;10.852;2023-02-15T02:15:17;10.38;;;8.80;;
43327;SDS011;28923;45.412;10.852;2023-02-15T02:26:04;11.27;;;9.52;;
43327;SDS011;28923;45.412;10.852;2023-02-15T02:33:28;25.52;;;10.00;;
43327;SDS011;28923;45.412;10.852;2023-02-15T02:41:18;11.82;;;9.82;;
43327;SDS011;28923;45.412;10.852;2023-02-15T02:43:59;11.20;;;9.30;;
43327;SDS011;28923;45.412;10.852;2023-02-15T02:48:54;11.90;;;9.43;;
43327;SDS011;28923;45.412;10.852;2023-02-15T02:51:20;11.27;;;9.52;;
43327;SDS011;28923;45.412;10.852;2023-02-15T02:53:48;9.30;;;8.30;;
43327;SDS011;28923;45.412;10.852;2023-02-15T02:56:24;10.95;;;9.20;;
43327;SDS011;28923;45.412;10.852;2023-02-15T03:01:24;11.80;;;8.93;;
43327;SDS011;28923;45.412;10.852;2023-02-15T03:03:59;9.95;;;8.90;;
43327;SDS011;28923;45.412;10.852;2023-02-15T03:06:35;10.95;;;9.18;;
43327;SDS011;28923;45.412;10.852;2023-02-15T03:09:04;10.63;;;8.85;;
43327;SDS011;28923;45.412;10.852;2023-02-15T03:11:31;10.38;;;9.07;;
43327;SDS011;28923;45.412;10.852;2023-02-15T03:13:56;9.98;;;8.70;;
43327;SDS011;28923;45.412;10.852;2023-02-15T03:16:22;9.02;;;7.80;;
43327;SDS011;28923;45.412;10.852;2023-02-15T03:18:53;9.80;;;8.40;;
43327;SDS011;28923;45.412;10.852;2023-02-15T03:21:23;9.90;;;8.30;;
43327;SDS011;28923;45.412;10.852;2023-02-15T03:23:54;11.07;;;7.88;;
43327;SDS011;28923;45.412;10.852;2023-02-15T03:26:21;9.48;;;8.00;;
43327;SDS011;28923;45.412;10.852;2023-02-15T03:28:47;9.25;;;7.35;;
43327;SDS011;28923;45.412;10.852;2023-02-15T03:31:14;9.43;;;8.00;;
43327;SDS011;28923;45.412;10.852;2023-02-15T03:33:44;9.82;;;7.55;;
43327;SDS011;28923;45.412;10.852;2023-02-15T03:38:57;9.35;;;7.53;;
43327;SDS011;28923;45.412;10.852;2023-02-15T03:41:26;7.65;;;6.53;;
43327;SDS011;28923;45.412;10.852;2023-02-15T03:48:51;7.97;;;6.75;;
43327;SDS011;28923;45.412;10.852;2023-02-15T03:51:18;7.25;;;6.00;;
43327;SDS011;28923;45.412;10.852;2023-02-15T03:54:04;7.63;;;6.20;;
43327;SDS011;28923;45.412;10.852;2023-02-15T03:56:33;8.65;;;6.28;;
43327;SDS011;28923;45.412;10.852;2023-02-15T03:58:59;7.35;;;6.32;;
43327;SDS011;28923;45.412;10.852;2023-02-15T04:04:36;8.18;;;5.90;;
43327;SDS011;28923;45.412;10.852;2023-02-15T04:07:03;6.10;;;5.50;;
43327;SDS011;28923;45.412;10.852;2023-02-15T04:09:28;7.18;;;5.75;;
43327;SDS011;28923;45.412;10.852;2023-02-15T04:12:12;7.45;;;5.80;;
43327;SDS011;28923;45.412;10.852;2023-02-15T04:14:38;6.78;;;5.65;;
43327;SDS011;28923;45.412;10.852;2023-02-15T04:17:22;7.68;;;5.47;;
43327;SDS011;28923;45.412;10.852;2023-02-15T04:19:47;5.70;;;5.07;;
43327;SDS011;28923;45.412;10.852;2023-02-15T04:22:31;7.03;;;5.78;;
43327;SDS011;28923;45.412;10.852;2023-02-15T04:25:15;6.00;;;4.85;;
43327;SDS011;28923;45.412;10.852;2023-02-15T04:27:42;5.57;;;4.72;;
43327;SDS011;28923;45.412;10.852;2023-02-15T04:30:07;5.60;;;4.85;;
43327;SDS011;28923;45.412;10.852;2023-02-15T04:32:33;5.40;;;4.63;;
43327;SDS011;28923;45.412;10.852;2023-02-15T04:34:59;5.22;;;4.45;;
43327;SDS011;28923;45.412;10.852;2023-02-15T04:37:24;5.43;;;4.63;;
43327;SDS011;28923;45.412;10.852;2023-02-15T04:39:51;5.20;;;4.70;;
43327;SDS011;28923;45.412;10.852;2023-02-15T04:42:16;6.72;;;4.50;;
43327;SDS011;28923;45.412;10.852;2023-02-15T04:44:42;5.13;;;4.43;;
43327;SDS011;28923;45.412;10.852;2023-02-15T04:47:08;7.00;;;4.60;;
43327;SDS011;28923;45.412;10.852;2023-02-15T04:49:33;4.68;;;4.20;;
43327;SDS011;28923;45.412;10.852;2023-02-15T04:51:58;4.90;;;4.25;;
43327;SDS011;28923;45.412;10.852;2023-02-15T04:54:24;5.10;;;4.50;;
43327;SDS011;28923;45.412;10.852;2023-02-15T04:56:49;5.03;;;4.25;;
43327;SDS011;28923;45.412;10.852;2023-02-15T04:59:15;4.60;;;3.78;;
43327;SDS011;28923;45.412;10.852;2023-02-15T05:01:40;4.97;;;4.03;;
43327;SDS011;28923;45.412;10.852;2023-02-15T05:04:06;5.15;;;3.97;;
43327;SDS011;28923;45.412;10.852;2023-02-15T05:06:32;4.88;;;3.85;;
43327;SDS011;28923;45.412;10.852;2023-02-15T05:08:57;4.93;;;3.95;;
43327;SDS011;28923;45.412;10.852;2023-02-15T05:11:24;4.80;;;4.13;;
43327;SDS011;28923;45.412;10.852;2023-02-15T05:13:50;4.88;;;3.88;;
43327;SDS011;28923;45.412;10.852;2023-02-15T05:16:15;5.50;;;4.25;;
43327;SDS011;28923;45.412;10.852;2023-02-15T05:18:40;4.85;;;4.22;;
43327;SDS011;28923;45.412;10.852;2023-02-15T05:21:06;4.50;;;4.00;;
43327;SDS011;28923;45.412;10.852;2023-02-15T05:23:31;5.35;;;4.10;;
43327;SDS011;28923;45.412;10.852;2023-02-15T05:25:57;5.78;;;4.38;;
43327;SDS011;28923;45.412;10.852;2023-02-15T05:28:41;4.68;;;3.92;;
43327;SDS011;28923;45.412;10.852;2023-02-15T05:31:11;5.45;;;4.40;;
43327;SDS011;28923;45.412;10.852;2023-02-15T05:33:37;5.65;;;4.43;;
43327;SDS011;28923;45.412;10.852;2023-02-15T05:36:02;6.60;;;4.88;;
43327;SDS011;28923;45.412;10.852;2023-02-15T05:38:28;5.60;;;4.28;;
43327;SDS011;28923;45.412;10.852;2023-02-15T05:40:53;5.78;;;4.63;;
43327;SDS011;28923;45.412;10.852;2023-02-15T05:43:19;4.93;;;4.43;;
43327;SDS011;28923;45.412;10.852;2023-02-15T05:45:45;7.53;;;4.88;;
43327;SDS011;28923;45.412;10.852;2023-02-15T05:48:11;4.85;;;4.30;;
43327;SDS011;28923;45.412;10.852;2023-02-15T05:50:36;6.80;;;4.60;;
43327;SDS011;28923;45.412;10.852;2023-02-15T05:53:01;9.18;;;4.88;;
43327;SDS011;28923;45.412;10.852;2023-02-15T05:55:27;8.48;;;4.63;;
43327;SDS011;28923;45.412;10.852;2023-02-15T05:57:52;6.22;;;4.40;;
43327;SDS011;28923;45.412;10.852;2023-02-15T06:00:18;6.63;;;4.45;;
43327;SDS011;28923;45.412;10.852;2023-02-15T06:02:43;6.57;;;4.72;;
43327;SDS011;28923;45.412;10.852;2023-02-15T06:05:09;6.88;;;4.45;;
43327;SDS011;28923;45.412;10.852;2023-02-15T06:07:34;6.95;;;4.60;;
43327;SDS011;28923;45.412;10.852;2023-02-15T06:10:00;7.70;;;4.13;;
43327;SDS011;28923;45.412;10.852;2023-02-15T06:12:25;5.60;;;4.72;;
43327;SDS011;28923;45.412;10.852;2023-02-15T06:14:50;6.38;;;4.78;;
43327;SDS011;28923;45.412;10.852;2023-02-15T06:17:16;5.85;;;4.40;;
43327;SDS011;28923;45.412;10.852;2023-02-15T06:19:42;9.68;;;4.32;;
43327;SDS011;28923;45.412;10.852;2023-02-15T06:22:07;6.38;;;4.70;;
43327;SDS011;28923;45.412;10.852;2023-02-15T06:24:33;8.13;;;4.65;;
43327;SDS011;28923;45.412;10.852;2023-02-15T06:26:58;5.88;;;4.38;;
43327;SDS011;28923;45.412;10.852;2023-02-15T06:29:24;6.32;;;4.40;;
43327;SDS011;28923;45.412;10.852;2023-02-15T06:31:49;7.32;;;4.60;;
43327;SDS011;28923;45.412;10.852;2023-02-15T06:34:15;6.63;;;4.75;;
43327;SDS011;28923;45.412;10.852;2023-02-15T06:36:40;5.80;;;4.13;;
43327;SDS011;28923;45.412;10.852;2023-02-15T06:39:06;5.78;;;4.50;;
43327;SDS011;28923;45.412;10.852;2023-02-15T06:41:32;8.90;;;4.68;;
43327;SDS011;28923;45.412;10.852;2023-02-15T06:43:57;10.18;;;5.10;;
43327;SDS011;28923;45.412;10.852;2023-02-15T06:46:23;7.63;;;4.53;;
43327;SDS011;28923;45.412;10.852;2023-02-15T06:48:48;10.77;;;4.85;;
43327;SDS011;28923;45.412;10.852;2023-02-15T06:51:14;7.60;;;4.15;;
43327;SDS011;28923;45.412;10.852;2023-02-15T06:53:39;14.95;;;5.10;;
43327;SDS011;28923;45.412;10.852;2023-02-15T06:56:08;13.07;;;5.43;;
43327;SDS011;28923;45.412;10.852;2023-02-15T06:58:34;17.10;;;4.97;;
43327;SDS011;28923;45.412;10.852;2023-02-15T07:01:00;12.52;;;4.38;;
43327;SDS011;28923;45.412;10.852;2023-02-15T07:03:25;8.75;;;4.38;;
43327;SDS011;28923;45.412;10.852;2023-02-15T07:05:57;8.70;;;4.70;;
43327;SDS011;28923;45.412;10.852;2023-02-15T07:08:23;8.60;;;4.82;;
43327;SDS011;28923;45.412;10.852;2023-02-15T07:10:49;6.25;;;4.65;;
43327;SDS011;28923;45.412;10.852;2023-02-15T07:13:15;15.32;;;4.18;;
43327;SDS011;28923;45.412;10.852;2023-02-15T07:15:40;5.93;;;4.20;;
43327;SDS011;28923;45.412;10.852;2023-02-15T07:18:06;6.72;;;4.90;;
43327;SDS011;28923;45.412;10.852;2023-02-15T07:20:31;8.40;;;4.63;;
43327;SDS011;28923;45.412;10.852;2023-02-15T07:22:58;8.98;;;4.80;;
43327;SDS011;28923;45.412;10.852;2023-02-15T07:25:23;11.25;;;4.40;;
43327;SDS011;28923;45.412;10.852;2023-02-15T07:27:54;8.00;;;4.40;;
43327;SDS011;28923;45.412;10.852;2023-02-15T07:30:20;8.82;;;4.90;;
43327;SDS011;28923;45.412;10.852;2023-02-15T07:32:45;9.93;;;4.50;;
43327;SDS011;28923;45.412;10.852;2023-02-15T07:35:29;6.57;;;4.55;;
43327;SDS011;28923;45.412;10.852;2023-02-15T07:37:54;12.68;;;4.47;;
43327;SDS011;28923;45.412;10.852;2023-02-15T07:40:20;6.68;;;4.78;;
43327;SDS011;28923;45.412;10.852;2023-02-15T07:42:48;7.90;;;4.15;;
43327;SDS011;28923;45.412;10.852;2023-02-15T07:45:13;8.18;;;4.70;;
43327;SDS011;28923;45.412;10.852;2023-02-15T07:47:39;8.50;;;4.68;;
43327;SDS011;28923;45.412;10.852;2023-02-15T07:50:05;9.27;;;4.97;;
43327;SDS011;28923;45.412;10.852;2023-02-15T07:52:30;6.70;;;4.45;;
43327;SDS011;28923;45.412;10.852;2023-02-15T07:54:55;8.85;;;4.70;;
43327;SDS011;28923;45.412;10.852;2023-02-15T07:57:21;7.90;;;5.05;;
43327;SDS011;28923;45.412;10.852;2023-02-15T07:59:46;8.18;;;4.82;;
43327;SDS011;28923;45.412;10.852;2023-02-15T08:02:14;8.18;;;5.20;;
43327;SDS011;28923;45.412;10.852;2023-02-15T08:04:40;8.43;;;4.90;;
43327;SDS011;28923;45.412;10.852;2023-02-15T08:07:05;8.38;;;5.40;;
43327;SDS011;28923;45.412;10.852;2023-02-15T08:09:32;9.73;;;4.97;;
43327;SDS011;28923;45.412;10.852;2023-02-15T08:11:57;8.25;;;5.03;;
43327;SDS011;28923;45.412;10.852;2023-02-15T08:14:23;8.57;;;5.00;;
43327;SDS011;28923;45.412;10.852;2023-02-15T08:16:49;6.50;;;4.80;;
43327;SDS011;28923;45.412;10.852;2023-02-15T08:19:25;6.38;;;4.75;;
43327;SDS011;28923;45.412;10.852;2023-02-15T08:24:17;7.00;;;5.10;;
43327;SDS011;28923;45.412;10.852;2023-02-15T08:26:43;7.38;;;5.05;;
43327;SDS011;28923;45.412;10.852;2023-02-15T08:29:17;6.63;;;5.38;;
43327;SDS011;28923;45.412;10.852;2023-02-15T08:31:42;7.72;;;4.63;;
43327;SDS011;28923;45.412;10.852;2023-02-15T08:34:08;6.97;;;5.32;;
43327;SDS011;28923;45.412;10.852;2023-02-15T08:36:34;6.82;;;5.00;;
43327;SDS011;28923;45.412;10.852;2023-02-15T08:39:01;8.15;;;5.07;;
43327;SDS011;28923;45.412;10.852;2023-02-15T08:41:28;7.22;;;5.18;;
43327;SDS011;28923;45.412;10.852;2023-02-15T08:43:55;8.65;;;5.93;;
43327;SDS011;28923;45.412;10.852;2023-02-15T08:46:21;9.80;;;6.30;;
43327;SDS011;28923;45.412;10.852;2023-02-15T08:48:47;9.23;;;7.03;;
43327;SDS011;28923;45.412;10.852;2023-02-15T08:51:13;8.77;;;6.93;;
43327;SDS011;28923;45.412;10.852;2023-02-15T08:53:40;9.73;;;7.72;;
43327;SDS011;28923;45.412;10.852;2023-02-15T08:56:06;10.82;;;7.65;;
43327;SDS011;28923;45.412;10.852;2023-02-15T08:58:32;10.50;;;6.60;;
43327;SDS011;28923;45.412;10.852;2023-02-15T09:00:57;10.95;;;7.93;;
43327;SDS011;28923;45.412;10.852;2023-02-15T09:03:23;10.38;;;7.40;;
43327;SDS011;28923;45.412;10.852;2023-02-15T09:05:48;10.80;;;7.30;;
43327;SDS011;28923;45.412;10.852;2023-02-15T09:08:14;11.23;;;7.63;;
43327;SDS011;28923;45.412;10.852;2023-02-15T09:10:39;12.43;;;7.75;;
43327;SDS011;28923;45.412;10.852;2023-02-15T09:13:05;9.95;;;7.53;;
43327;SDS011;28923;45.412;10.852;2023-02-15T09:15:30;10.88;;;7.13;;
43327;SDS011;28923;45.412;10.852;2023-02-15T09:17:56;9.60;;;7.22;;
43327;SDS011;28923;45.412;10.852;2023-02-15T09:20:24;9.73;;;7.50;;
43327;SDS011;28923;45.412;10.852;2023-02-15T09:22:51;9.95;;;7.15;;
43327;SDS011;28923;45.412;10.852;2023-02-15T09:25:16;10.68;;;7.40;;
43327;SDS011;28923;45.412;10.852;2023-02-15T09:27:42;10.73;;;7.72;;
43327;SDS011;28923;45.412;10.852;2023-02-15T09:30:08;11.48;;;7.63;;
43327;SDS011;28923;45.412;10.852;2023-02-15T09:32:33;10.48;;;7.10;;
43327;SDS011;28923;45.412;10.852;2023-02-15T09:34:59;9.50;;;7.57;;
43327;SDS011;28923;45.412;10.852;2023-02-15T09:37:24;9.60;;;7.22;;
43327;SDS011;28923;45.412;10.852;2023-02-15T09:39:49;11.43;;;7.65;;
43327;SDS011;28923;45.412;10.852;2023-02-15T09:44:57;10.55;;;8.23;;
43327;SDS011;28923;45.412;10.852;2023-02-15T09:50:05;11.80;;;7.53;;
43327;SDS011;28923;45.412;10.852;2023-02-15T09:52:34;11.95;;;8.27;;
43327;SDS011;28923;45.412;10.852;2023-02-15T09:57:39;10.00;;;7.47;;
43327;SDS011;28923;45.412;10.852;2023-02-15T10:03:00;11.40;;;7.60;;
43327;SDS011;28923;45.412;10.852;2023-02-15T10:08:21;11.00;;;7.25;;
43327;SDS011;28923;45.412;10.852;2023-02-15T10:14:20;11.45;;;7.47;;
43327;SDS011;28923;45.412;10.852;2023-02-15T10:16:56;10.98;;;8.07;;
43327;SDS011;28923;45.412;10.852;2023-02-15T10:19:48;12.82;;;7.60;;
43327;SDS011;28923;45.412;10.852;2023-02-15T10:25:31;10.38;;;7.50;;
43327;SDS011;28923;45.412;10.852;2023-02-15T10:27:39;10.63;;;7.68;;
43327;SDS011;28923;45.412;10.852;2023-02-15T10:32:40;10.90;;;7.63;;
43327;SDS011;28923;45.412;10.852;2023-02-15T10:35:34;10.10;;;7.30;;
43327;SDS011;28923;45.412;10.852;2023-02-15T10:50:48;7.43;;;5.90;;
43327;SDS011;28923;45.412;10.852;2023-02-15T10:53:34;8.27;;;5.78;;
43327;SDS011;28923;45.412;10.852;2023-02-15T11:06:16;7.32;;;5.13;;
43327;SDS011;28923;45.412;10.852;2023-02-15T11:08:45;6.88;;;5.25;;
43327;SDS011;28923;45.412;10.852;2023-02-15T11:14:14;7.13;;;4.70;;
43327;SDS011;28923;45.412;10.852;2023-02-15T11:16:44;6.78;;;4.55;;
43327;SDS011;28923;45.412;10.852;2023-02-15T11:21:37;7.70;;;4.47;;
43327;SDS011;28923;45.412;10.852;2023-02-15T11:24:12;6.63;;;4.35;;
43327;SDS011;28923;45.412;10.852;2023-02-15T11:26:44;6.45;;;4.38;;
43327;SDS011;28923;45.412;10.852;2023-02-15T11:29:13;6.50;;;4.20;;
43327;SDS011;28923;45.412;10.852;2023-02-15T11:32:03;6.05;;;3.67;;
43327;SDS011;28923;45.412;10.852;2023-02-15T11:34:31;4.82;;;3.85;;
43327;SDS011;28923;45.412;10.852;2023-02-15T11:37:00;5.93;;;4.15;;
43327;SDS011;28923;45.412;10.852;2023-02-15T11:39:26;5.43;;;4.10;;
43327;SDS011;28923;45.412;10.852;2023-02-15T11:41:57;6.13;;;4.07;;
43327;SDS011;28923;45.412;10.852;2023-02-15T11:44:27;4.97;;;4.22;;
43327;SDS011;28923;45.412;10.852;2023-02-15T11:46:57;5.63;;;4.45;;
43327;SDS011;28923;45.412;10.852;2023-02-15T11:49:31;5.35;;;4.00;;
43327;SDS011;28923;45.412;10.852;2023-02-15T11:51:58;5.85;;;3.88;;
43327;SDS011;28923;45.412;10.852;2023-02-15T11:54:29;5.57;;;4.30;;
43327;SDS011;28923;45.412;10.852;2023-02-15T11:57:15;6.70;;;4.30;;
43327;SDS011;28923;45.412;10.852;2023-02-15T11:59:45;4.63;;;3.78;;
43327;SDS011;28923;45.412;10.852;2023-02-15T12:02:19;4.97;;;4.00;;
43327;SDS011;28923;45.412;10.852;2023-02-15T12:04:52;5.57;;;3.80;;
43327;SDS011;28923;45.412;10.852;2023-02-15T12:07:21;5.50;;;4.07;;
43327;SDS011;28923;45.412;10.852;2023-02-15T12:09:50;4.78;;;3.72;;
43327;SDS011;28923;45.412;10.852;2023-02-15T12:12:28;7.05;;;4.00;;
43327;SDS011;28923;45.412;10.852;2023-02-15T12:17:39;4.10;;;3.30;;
43327;SDS011;28923;45.412;10.852;2023-02-15T12:22:42;4.13;;;3.22;;
43327;SDS011;28923;45.412;10.852;2023-02-15T12:25:56;5.22;;;3.67;;
43327;SDS011;28923;45.412;10.852;2023-02-15T12:27:56;6.10;;;3.53;;
43327;SDS011;28923;45.412;10.852;2023-02-15T12:30:29;4.15;;;3.10;;
43327;SDS011;28923;45.412;10.852;2023-02-15T12:32:56;4.38;;;3.03;;
43327;SDS011;28923;45.412;10.852;2023-02-15T12:37:55;3.88;;;3.08;;
43327;SDS011;28923;45.412;10.852;2023-02-15T12:40:23;4.88;;;3.05;;
43327;SDS011;28923;45.412;10.852;2023-02-15T12:42:52;4.90;;;3.58;;
43327;SDS011;28923;45.412;10.852;2023-02-15T12:45:27;4.32;;;3.17;;
43327;SDS011;28923;45.412;10.852;2023-02-15T12:50:38;4.28;;;3.25;;
43327;SDS011;28923;45.412;10.852;2023-02-15T12:53:13;5.15;;;3.38;;
43327;SDS011;28923;45.412;10.852;2023-02-15T12:55:44;4.25;;;3.17;;
43327;SDS011;28923;45.412;10.852;2023-02-15T12:58:27;8.20;;;2.83;;
43327;SDS011;28923;45.412;10.852;2023-02-15T13:01:03;3.85;;;2.80;;
43327;SDS011;28923;45.412;10.852;2023-02-15T13:03:29;3.65;;;2.90;;
43327;SDS011;28923;45.412;10.852;2023-02-15T13:05:57;7.78;;;3.60;;
43327;SDS011;28923;45.412;10.852;2023-02-15T13:08:27;5.47;;;3.03;;
43327;SDS011;28923;45.412;10.852;2023-02-15T13:13:23;4.90;;;3.13;;
43327;SDS011;28923;45.412;10.852;2023-02-15T13:15:53;4.25;;;2.97;;
43327;SDS011;28923;45.412;10.852;2023-02-15T13:20:54;6.97;;;3.08;;
43327;SDS011;28923;45.412;10.852;2023-02-15T13:23:29;5.97;;;3.30;;
43327;SDS011;28923;45.412;10.852;2023-02-15T13:25:55;5.25;;;3.20;;
43327;SDS011;28923;45.412;10.852;2023-02-15T13:28:23;6.30;;;3.17;;
43327;SDS011;28923;45.412;10.852;2023-02-15T13:30:50;5.00;;;3.33;;
43327;SDS011;28923;45.412;10.852;2023-02-15T13:33:22;5.65;;;3.05;;
43327;SDS011;28923;45.412;10.852;2023-02-15T13:38:35;4.57;;;3.72;;
43327;SDS011;28923;45.412;10.852;2023-02-15T13:41:09;4.57;;;3.38;;
43327;SDS011;28923;45.412;10.852;2023-02-15T13:46:43;5.78;;;3.50;;
43327;SDS011;28923;45.412;10.852;2023-02-15T13:51:59;4.95;;;3.08;;
43327;SDS011;28923;45.412;10.852;2023-02-15T13:56:57;6.30;;;3.70;;
43327;SDS011;28923;45.412;10.852;2023-02-15T13:59:28;6.80;;;3.92;;
43327;SDS011;28923;45.412;10.852;2023-02-15T14:01:57;4.30;;;3.55;;
43327;SDS011;28923;45.412;10.852;2023-02-15T14:19:48;7.25;;;4.60;;
43327;SDS011;28923;45.412;10.852;2023-02-15T14:22:30;7.88;;;4.75;;
43327;SDS011;28923;45.412;10.852;2023-02-15T14:28:04;7.60;;;4.70;;
43327;SDS011;28923;45.412;10.852;2023-02-15T14:30:36;8.93;;;4.90;;
43327;SDS011;28923;45.412;10.852;2023-02-15T14:33:16;9.05;;;5.63;;
43327;SDS011;28923;45.412;10.852;2023-02-15T14:35:46;8.48;;;5.38;;
43327;SDS011;28923;45.412;10.852;2023-02-15T14:38:59;10.35;;;5.85;;
43327;SDS011;28923;45.412;10.852;2023-02-15T14:48:55;10.25;;;6.05;;
43327;SDS011;28923;45.412;10.852;2023-02-15T14:54:52;10.70;;;6.95;;
43327;SDS011;28923;45.412;10.852;2023-02-15T14:59:45;10.70;;;6.82;;
43327;SDS011;28923;45.412;10.852;2023-02-15T15:05:06;10.95;;;6.57;;
43327;SDS011;28923;45.412;10.852;2023-02-15T15:07:36;10.85;;;7.03;;
43327;SDS011;28923;45.412;10.852;2023-02-15T15:12:54;14.20;;;6.93;;
43327;SDS011;28923;45.412;10.852;2023-02-15T15:17:52;10.07;;;7.13;;
43327;SDS011;28923;45.412;10.852;2023-02-15T15:25:40;10.60;;;7.28;;
43327;SDS011;28923;45.412;10.852;2023-02-15T15:28:07;13.35;;;8.18;;
43327;SDS011;28923;45.412;10.852;2023-02-15T15:33:42;13.80;;;8.65;;
43327;SDS011;28923;45.412;10.852;2023-02-15T15:36:11;12.77;;;8.02;;
43327;SDS011;28923;45.412;10.852;2023-02-15T15:38:57;12.10;;;7.95;;
43327;SDS011;28923;45.412;10.852;2023-02-15T15:41:42;11.68;;;8.07;;
43327;SDS011;28923;45.412;10.852;2023-02-15T15:44:26;13.77;;;7.95;;
43327;SDS011;28923;45.412;10.852;2023-02-15T15:49:32;14.82;;;9.00;;
43327;SDS011;28923;45.412;10.852;2023-02-15T15:52:01;15.32;;;8.68;;
43327;SDS011;28923;45.412;10.852;2023-02-15T15:54:27;16.25;;;8.82;;
43327;SDS011;28923;45.412;10.852;2023-02-15T15:56:54;15.95;;;8.68;;
43327;SDS011;28923;45.412;10.852;2023-02-15T15:59:22;13.77;;;8.48;;
43327;SDS011;28923;45.412;10.852;2023-02-15T16:01:49;18.05;;;8.77;;
43327;SDS011;28923;45.412;10.852;2023-02-15T16:04:26;17.38;;;9.13;;
43327;SDS011;28923;45.412;10.852;2023-02-15T16:06:51;16.58;;;9.15;;
43327;SDS011;28923;45.412;10.852;2023-02-15T16:09:26;18.02;;;9.15;;
43327;SDS011;28923;45.412;10.852;2023-02-15T16:11:53;17.10;;;9.05;;
43327;SDS011;28923;45.412;10.852;2023-02-15T16:14:26;18.27;;;9.90;;
43327;SDS011;28923;45.412;10.852;2023-02-15T16:16:55;23.85;;;10.70;;
43327;SDS011;28923;45.412;10.852;2023-02-15T16:19:22;17.30;;;10.30;;
43327;SDS011;28923;45.412;10.852;2023-02-15T16:21:48;22.10;;;9.90;;
43327;SDS011;28923;45.412;10.852;2023-02-15T16:29:16;20.00;;;10.73;;
43327;SDS011;28923;45.412;10.852;2023-02-15T16:31:42;17.25;;;9.90;;
43327;SDS011;28923;45.412;10.852;2023-02-15T16:34:16;20.42;;;10.23;;
43327;SDS011;28923;45.412;10.852;2023-02-15T16:36:42;20.70;;;11.07;;
43327;SDS011;28923;45.412;10.852;2023-02-15T16:39:10;23.15;;;11.15;;
43327;SDS011;28923;45.412;10.852;2023-02-15T16:41:37;23.95;;;10.55;;
43327;SDS011;28923;45.412;10.852;2023-02-15T16:44:14;19.65;;;11.13;;
43327;SDS011;28923;45.412;10.852;2023-02-15T16:46:41;23.02;;;11.85;;
43327;SDS011;28923;45.412;10.852;2023-02-15T16:49:14;18.35;;;11.32;;
43327;SDS011;28923;45.412;10.852;2023-02-15T16:51:40;19.00;;;11.10;;
43327;SDS011;28923;45.412;10.852;2023-02-15T16:54:07;19.23;;;10.95;;
43327;SDS011;28923;45.412;10.852;2023-02-15T16:56:33;17.40;;;11.07;;
43327;SDS011;28923;45.412;10.852;2023-02-15T16:58:59;15.82;;;10.85;;
43327;SDS011;28923;45.412;10.852;2023-02-15T17:01:27;18.10;;;10.65;;
43327;SDS011;28923;45.412;10.852;2023-02-15T17:04:36;17.48;;;10.75;;
43327;SDS011;28923;45.412;10.852;2023-02-15T17:06:42;20.52;;;12.23;;
43327;SDS011;28923;45.412;10.852;2023-02-15T17:09:22;18.77;;;10.95;;
43327;SDS011;28923;45.412;10.852;2023-02-15T17:11:50;21.15;;;12.50;;
43327;SDS011;28923;45.412;10.852;2023-02-15T17:14:19;18.83;;;11.27;;
43327;SDS011;28923;45.412;10.852;2023-02-15T17:16:49;22.38;;;11.90;;
43327;SDS011;28923;45.412;10.852;2023-02-15T17:24:20;17.38;;;11.15;;
43327;SDS011;28923;45.412;10.852;2023-02-15T17:26:51;17.85;;;10.98;;
43327;SDS011;28923;45.412;10.852;2023-02-15T17:29:37;17.48;;;11.60;;
43327;SDS011;28923;45.412;10.852;2023-02-15T17:32:04;18.48;;;10.52;;
43327;SDS011;28923;45.412;10.852;2023-02-15T17:37:11;15.05;;;10.70;;
43327;SDS011;28923;45.412;10.852;2023-02-15T17:39:37;20.80;;;11.50;;